Time;durP1;ratioP1;P1;durP2;ratioP2;P2;SDS_P1;SDS_P2;PMS_P1;PMS_P2;Temp;Humidity;BMP_temperature;BMP_pressure;BME280_temperature;BME280_humidity;BME280_pressure;Samples;Min_cycle;Max_cycle;Signal;HPM_P1;HPM_P2
2022/06/09 00:01:29;;;;;;;75.70;24.48;;;;;;;;;;4969623;28;20054;-72
2022/06/09 00:04:00;;;;;;;63.30;22.70;;;;;;;;;;4966505;28;20855;-72
2022/06/09 00:06:30;;;;;;;72.38;23.90;;;;;;;;;;4974551;28;20116;-72
2022/06/09 00:08:58;;;;;;;91.90;25.20;;;;;;;;;;4970821;28;20120;-72
2022/06/09 00:11:26;;;;;;;67.28;22.80;;;;;;;;;;4966325;28;20060;-72
2022/06/09 00:13:55;;;;;;;81.30;26.83;;;;;;;;;;4983416;28;20946;-72
2022/06/09 00:16:22;;;;;;;67.30;23.40;;;;;;;;;;4963753;28;20062;-72
2022/06/09 00:18:49;;;;;;;90.68;27.33;;;;;;;;;;4967617;28;20065;-72
2022/06/09 00:21:17;;;;;;;81.00;26.77;;;;;;;;;;4969034;28;20567;-72
2022/06/09 00:23:44;;;;;;;73.47;24.42;;;;;;;;;;4971693;28;20047;-72
2022/06/09 00:26:11;;;;;;;163.02;33.88;;;;;;;;;;4974990;28;20251;-72
2022/06/09 00:28:38;;;;;;;80.50;24.52;;;;;;;;;;4971311;28;20050;-72
2022/06/09 00:31:07;;;;;;;66.22;21.38;;;;;;;;;;4970142;28;20100;-72
2022/06/09 00:33:34;;;;;;;70.80;22.20;;;;;;;;;;4970759;28;20046;-72
2022/06/09 00:36:01;;;;;;;64.60;21.48;;;;;;;;;;4969513;28;20062;-72
2022/06/09 00:38:28;;;;;;;76.68;23.60;;;;;;;;;;4969333;28;20116;-72
2022/06/09 00:40:57;;;;;;;79.57;22.88;;;;;;;;;;4969891;28;20448;-72
2022/06/09 00:43:25;;;;;;;60.20;21.27;;;;;;;;;;4970957;28;20054;-72
2022/06/09 00:45:56;;;;;;;64.60;21.63;;;;;;;;;;4970026;28;20058;-72
2022/06/09 00:48:30;;;;;;;115.43;25.83;;;;;;;;;;4968958;28;20066;-72
2022/06/09 00:50:59;;;;;;;137.15;31.10;;;;;;;;;;4970985;28;20061;-72
2022/06/09 00:53:28;;;;;;;80.90;23.20;;;;;;;;;;4968919;28;20164;-72
2022/06/09 00:55:55;;;;;;;79.93;23.45;;;;;;;;;;4975081;28;20042;-72
2022/06/09 00:58:24;;;;;;;61.92;21.35;;;;;;;;;;4965148;28;20489;-72
2022/06/09 01:00:53;;;;;;;69.78;20.65;;;;;;;;;;4972194;28;20124;-72
2022/06/09 01:03:21;;;;;;;96.00;25.02;;;;;;;;;;4970490;28;20062;-72
2022/06/09 01:05:50;;;;;;;72.03;21.90;;;;;;;;;;4973194;28;20148;-72
2022/06/09 01:08:18;;;;;;;80.00;24.25;;;;;;;;;;4968491;28;20054;-72
2022/06/09 01:10:45;;;;;;;84.93;24.05;;;;;;;;;;4967414;28;20055;-72
2022/06/09 01:13:12;;;;;;;77.20;23.13;;;;;;;;;;4966965;28;20047;-72
2022/06/09 01:15:51;;;;;;;96.60;25.50;;;;;;;;;;4983982;28;20070;-72
2022/06/09 01:18:25;;;;;;;76.18;23.02;;;;;;;;;;4970319;28;20428;-72
2022/06/09 01:20:59;;;;;;;98.75;26.42;;;;;;;;;;4969894;28;20112;-72
2022/06/09 01:23:42;;;;;;;104.63;26.73;;;;;;;;;;4970440;28;20566;-72
2022/06/09 01:26:24;;;;;;;125.28;29.08;;;;;;;;;;4965016;28;20070;-72
2022/06/09 01:28:59;;;;;;;71.38;25.08;;;;;;;;;;4967091;28;20058;-72
2022/06/09 01:31:31;;;;;;;59.13;22.48;;;;;;;;;;4970424;28;20061;-72
2022/06/09 01:34:00;;;;;;;95.85;27.33;;;;;;;;;;4971870;28;20570;-72
2022/06/09 01:36:30;;;;;;;84.95;26.45;;;;;;;;;;4967700;28;20061;-72
2022/06/09 01:38:58;;;;;;;187.55;36.05;;;;;;;;;;4966318;28;20056;-72
2022/06/09 01:41:26;;;;;;;57.45;22.30;;;;;;;;;;4962272;28;20074;-72
2022/06/09 01:43:54;;;;;;;63.08;21.73;;;;;;;;;;4969496;28;20046;-72
2022/06/09 01:46:24;;;;;;;71.50;24.52;;;;;;;;;;4962138;28;20525;-72
2022/06/09 01:48:55;;;;;;;187.80;40.00;;;;;;;;;;4969728;28;20049;-72
2022/06/09 01:51:23;;;;;;;115.30;28.38;;;;;;;;;;4967180;28;20054;-72
2022/06/09 01:53:52;;;;;;;126.43;28.52;;;;;;;;;;4967595;28;20485;-72
2022/06/09 01:56:22;;;;;;;116.93;27.00;;;;;;;;;;4964213;28;20385;-72
2022/06/09 01:58:52;;;;;;;66.68;23.70;;;;;;;;;;4972707;28;20125;-72
2022/06/09 02:01:24;;;;;;;91.38;24.63;;;;;;;;;;4970129;28;20101;-72
2022/06/09 02:03:53;;;;;;;217.35;25.27;;;;;;;;;;4970541;28;20053;-72
2022/06/09 02:06:22;;;;;;;196.20;26.42;;;;;;;;;;4966717;28;20042;-72
2022/06/09 02:08:49;;;;;;;189.52;30.92;;;;;;;;;;4968936;28;20444;-72
2022/06/09 02:11:17;;;;;;;64.75;21.95;;;;;;;;;;4967739;28;20109;-72
2022/06/09 02:13:45;;;;;;;81.93;25.77;;;;;;;;;;4969003;28;20047;-72
2022/06/09 02:16:14;;;;;;;115.78;30.20;;;;;;;;;;4976072;28;20112;-72
2022/06/09 02:18:42;;;;;;;130.75;29.00;;;;;;;;;;4967494;28;20054;-72
2022/06/09 02:21:12;;;;;;;135.68;30.85;;;;;;;;;;4967760;28;20485;-72
2022/06/09 02:23:40;;;;;;;78.38;28.35;;;;;;;;;;4962032;28;20529;-72
2022/06/09 02:26:08;;;;;;;62.72;27.13;;;;;;;;;;4970957;28;20058;-72
2022/06/09 02:28:35;;;;;;;107.03;34.85;;;;;;;;;;4968482;28;20537;-72
2022/06/09 02:31:03;;;;;;;85.07;31.80;;;;;;;;;;4966801;28;20519;-72
2022/06/09 02:33:30;;;;;;;57.78;25.58;;;;;;;;;;4969043;28;20504;-72
2022/06/09 02:35:58;;;;;;;59.65;25.73;;;;;;;;;;4966132;28;20062;-72
2022/06/09 02:38:25;;;;;;;63.25;26.38;;;;;;;;;;4967089;28;20058;-72
2022/06/09 02:40:54;;;;;;;62.67;25.15;;;;;;;;;;4965649;28;20054;-72
2022/06/09 02:43:21;;;;;;;63.35;27.00;;;;;;;;;;4962855;28;21302;-72
2022/06/09 02:45:49;;;;;;;55.92;25.65;;;;;;;;;;4965889;28;20080;-72
2022/06/09 02:48:17;;;;;;;78.03;29.25;;;;;;;;;;4972243;28;20054;-72
2022/06/09 02:50:46;;;;;;;47.15;22.75;;;;;;;;;;4960587;28;20054;-74
2022/06/09 02:53:13;;;;;;;42.55;21.45;;;;;;;;;;4964085;28;20050;-73
2022/06/09 02:55:41;;;;;;;53.63;26.77;;;;;;;;;;4960344;28;20066;-73
2022/06/09 02:58:09;;;;;;;72.55;31.63;;;;;;;;;;4959519;28;20062;-73
2022/06/09 03:00:37;;;;;;;40.78;22.52;;;;;;;;;;4959497;28;20101;-73
2022/06/09 03:03:06;;;;;;;47.80;25.45;;;;;;;;;;4960440;28;20674;-73
2022/06/09 03:05:35;;;;;;;40.03;21.52;;;;;;;;;;4960935;28;20120;-73
2022/06/09 03:08:03;;;;;;;39.20;22.10;;;;;;;;;;4958967;28;20054;-73
2022/06/09 03:10:30;;;;;;;42.33;24.02;;;;;;;;;;4966656;28;20524;-73
2022/06/09 03:12:57;;;;;;;44.95;23.38;;;;;;;;;;4963395;28;20090;-73
2022/06/09 03:15:26;;;;;;;66.75;28.25;;;;;;;;;;4960835;28;20567;-73
2022/06/09 03:17:54;;;;;;;61.08;28.08;;;;;;;;;;4959039;28;20047;-73
2022/06/09 03:20:23;;;;;;;47.80;26.67;;;;;;;;;;4961612;28;20058;-73
2022/06/09 03:22:50;;;;;;;59.33;30.60;;;;;;;;;;4964627;28;20072;-73
2022/06/09 03:25:17;;;;;;;48.35;27.38;;;;;;;;;;4964748;28;20054;-73
2022/06/09 03:27:45;;;;;;;40.90;24.55;;;;;;;;;;4963500;28;20157;-73
2022/06/09 03:30:13;;;;;;;58.38;31.05;;;;;;;;;;4963475;28;20054;-73
2022/06/09 03:32:41;;;;;;;49.17;31.27;;;;;;;;;;4963300;28;20129;-73
2022/06/09 03:35:09;;;;;;;52.88;30.95;;;;;;;;;;4960620;28;20042;-73
2022/06/09 03:37:36;;;;;;;61.65;33.05;;;;;;;;;;4957638;28;20113;-73
2022/06/09 03:40:05;;;;;;;59.33;35.40;;;;;;;;;;4963696;28;20555;-73
2022/06/09 03:42:32;;;;;;;45.83;31.67;;;;;;;;;;4960621;28;20054;-73
2022/06/09 03:44:59;;;;;;;47.40;30.13;;;;;;;;;;4960945;28;20252;-73
2022/06/09 03:47:26;;;;;;;54.15;35.75;;;;;;;;;;4960438;28;20063;-73
2022/06/09 03:49:55;;;;;;;98.85;43.42;;;;;;;;;;4960658;28;20062;-73
2022/06/09 03:52:22;;;;;;;45.40;32.35;;;;;;;;;;4958853;28;20057;-73
2022/06/09 03:54:49;;;;;;;42.75;32.50;;;;;;;;;;4964207;28;20141;-73
2022/06/09 03:57:16;;;;;;;54.55;36.10;;;;;;;;;;4963298;28;20050;-73
2022/06/09 03:59:43;;;;;;;52.40;34.03;;;;;;;;;;4966577;28;20122;-73
2022/06/09 04:02:11;;;;;;;43.72;28.45;;;;;;;;;;4963358;28;20086;-73
2022/06/09 04:04:38;;;;;;;40.08;29.52;;;;;;;;;;4967368;28;20046;-73
2022/06/09 04:07:06;;;;;;;49.40;31.83;;;;;;;;;;4967675;28;20061;-73
2022/06/09 04:09:34;;;;;;;50.85;34.10;;;;;;;;;;4962832;28;20066;-73
2022/06/09 04:12:02;;;;;;;54.28;36.63;;;;;;;;;;4961275;28;20055;-73
2022/06/09 04:14:29;;;;;;;38.30;29.75;;;;;;;;;;4964828;28;20065;-73
2022/06/09 04:16:56;;;;;;;44.53;32.22;;;;;;;;;;4960565;28;20054;-73
2022/06/09 04:19:24;;;;;;;46.63;32.08;;;;;;;;;;4967530;28;20141;-73
2022/06/09 04:21:52;;;;;;;55.63;35.03;;;;;;;;;;4964087;28;20050;-73
2022/06/09 04:24:20;;;;;;;43.63;31.20;;;;;;;;;;4965978;28;20050;-73
2022/06/09 04:26:48;;;;;;;57.83;34.95;;;;;;;;;;4962014;28;20665;-73
2022/06/09 04:29:15;;;;;;;46.70;32.85;;;;;;;;;;4959876;28;20108;-73
2022/06/09 04:31:43;;;;;;;51.60;35.53;;;;;;;;;;4959891;28;20050;-73
2022/06/09 04:34:11;;;;;;;49.30;31.42;;;;;;;;;;4966124;28;20511;-73
2022/06/09 04:36:38;;;;;;;42.35;29.25;;;;;;;;;;4962295;28;20073;-73
2022/06/09 04:39:07;;;;;;;47.75;31.20;;;;;;;;;;4964603;28;20050;-73
2022/06/09 04:41:36;;;;;;;35.95;26.60;;;;;;;;;;4965182;28;20058;-73
2022/06/09 04:44:03;;;;;;;51.75;34.28;;;;;;;;;;4962566;28;20061;-73
2022/06/09 04:46:31;;;;;;;42.42;30.50;;;;;;;;;;4960974;28;20057;-73
2022/06/09 04:48:58;;;;;;;50.80;33.05;;;;;;;;;;4965454;28;20054;-73
2022/06/09 04:51:26;;;;;;;39.00;26.77;;;;;;;;;;4966436;28;20054;-73
2022/06/09 04:53:54;;;;;;;32.33;23.95;;;;;;;;;;4966869;28;20117;-73
2022/06/09 04:56:21;;;;;;;40.70;28.35;;;;;;;;;;4962733;28;20081;-73
2022/06/09 04:58:51;;;;;;;38.63;29.88;;;;;;;;;;4959494;28;20065;-73
2022/06/09 05:01:20;;;;;;;31.30;26.13;;;;;;;;;;4962664;28;20553;-73
2022/06/09 05:03:48;;;;;;;35.50;26.92;;;;;;;;;;4961914;28;20104;-73
2022/06/09 05:06:16;;;;;;;28.95;24.02;;;;;;;;;;4963537;28;20046;-73
2022/06/09 05:08:43;;;;;;;41.03;30.35;;;;;;;;;;4954823;28;20054;-73
2022/06/09 05:11:10;;;;;;;50.58;32.72;;;;;;;;;;4956779;28;20540;-72
2022/06/09 05:13:38;;;;;;;51.80;34.97;;;;;;;;;;4958323;28;20058;-72
2022/06/09 05:16:07;;;;;;;51.08;32.83;;;;;;;;;;4958010;28;20152;-72
2022/06/09 05:18:35;;;;;;;45.92;33.78;;;;;;;;;;4953553;28;20414;-73
2022/06/09 05:21:02;;;;;;;52.53;33.42;;;;;;;;;;4958094;28;20057;-73
2022/06/09 05:23:30;;;;;;;49.13;32.35;;;;;;;;;;4959824;28;20452;-73
2022/06/09 05:25:58;;;;;;;33.95;24.15;;;;;;;;;;4963414;28;20050;-73
2022/06/09 05:28:27;;;;;;;32.72;21.85;;;;;;;;;;4956088;28;20054;-73
2022/06/09 05:30:54;;;;;;;34.40;23.65;;;;;;;;;;4956272;28;20054;-72
2022/06/09 05:33:23;;;;;;;33.72;23.13;;;;;;;;;;4960579;28;20055;-73
2022/06/09 05:35:50;;;;;;;27.70;21.35;;;;;;;;;;4965174;28;20046;-73
2022/06/09 05:46:34;;;;;;;30.90;18.85;;;;;;;;;;4957863;28;20042;-73
2022/06/09 05:49:03;;;;;;;26.35;19.00;;;;;;;;;;4958908;28;20058;-73
2022/06/09 05:51:32;;;;;;;30.73;20.58;;;;;;;;;;4960718;28;20077;-73
2022/06/09 05:53:59;;;;;;;43.60;21.80;;;;;;;;;;4958785;28;20062;-73
2022/06/09 05:56:26;;;;;;;26.38;18.08;;;;;;;;;;4961955;28;20051;-73
2022/06/09 05:58:54;;;;;;;29.98;18.85;;;;;;;;;;4958682;28;20116;-73
2022/06/09 06:01:22;;;;;;;24.65;18.02;;;;;;;;;;4959146;28;20116;-73
2022/06/09 06:03:49;;;;;;;29.92;19.42;;;;;;;;;;4957932;28;20051;-73
2022/06/09 06:06:37;;;;;;;25.40;16.88;;;;;;;;;;4960763;28;20054;-73
2022/06/09 06:09:06;;;;;;;23.90;17.10;;;;;;;;;;4956036;28;20049;-73
2022/06/09 06:11:33;;;;;;;24.95;15.48;;;;;;;;;;4955627;28;20054;-73
2022/06/09 06:14:00;;;;;;;27.15;12.75;;;;;;;;;;4956326;28;20572;-73
2022/06/09 06:16:28;;;;;;;25.40;13.85;;;;;;;;;;4962133;28;20066;-73
2022/06/09 06:18:55;;;;;;;20.77;13.75;;;;;;;;;;4970594;28;20129;-73
2022/06/09 06:21:24;;;;;;;25.08;11.13;;;;;;;;;;4965207;28;20054;-73
2022/06/09 06:23:53;;;;;;;18.77;9.70;;;;;;;;;;4968992;28;20393;-73
2022/06/09 06:26:21;;;;;;;21.15;9.70;;;;;;;;;;4969771;28;20054;-73
2022/06/09 06:28:48;;;;;;;18.00;6.32;;;;;;;;;;4970644;28;20054;-73
2022/06/09 06:31:15;;;;;;;13.82;7.90;;;;;;;;;;4969221;28;20074;-73
2022/06/09 06:33:42;;;;;;;10.68;4.47;;;;;;;;;;4971625;28;20066;-73
2022/06/09 06:36:10;;;;;;;9.35;4.10;;;;;;;;;;4965288;28;20091;-73
2022/06/09 06:38:39;;;;;;;12.77;4.75;;;;;;;;;;4965031;28;20046;-73
2022/06/09 06:41:07;;;;;;;13.07;3.78;;;;;;;;;;4961385;28;20128;-73
2022/06/09 06:43:34;;;;;;;13.43;3.75;;;;;;;;;;4957029;28;20058;-73
2022/06/09 06:46:01;;;;;;;10.90;3.65;;;;;;;;;;4961722;28;20047;-73
2022/06/09 06:48:29;;;;;;;17.25;3.80;;;;;;;;;;4962529;28;20057;-73
2022/06/09 06:50:56;;;;;;;12.82;3.50;;;;;;;;;;4967568;28;20046;-73
2022/06/09 06:53:24;;;;;;;12.20;3.47;;;;;;;;;;4962194;28;20057;-73
2022/06/09 06:55:52;;;;;;;10.13;2.80;;;;;;;;;;4973912;28;20045;-73
2022/06/09 06:58:19;;;;;;;9.90;2.13;;;;;;;;;;4971034;28;20058;-73
2022/06/09 07:00:46;;;;;;;12.02;2.75;;;;;;;;;;4972779;28;20054;-73
2022/06/09 07:03:14;;;;;;;8.27;2.55;;;;;;;;;;4969434;28;20112;-73
2022/06/09 07:05:41;;;;;;;10.65;2.70;;;;;;;;;;4971894;28;20497;-73
2022/06/09 07:08:08;;;;;;;11.18;2.40;;;;;;;;;;4975313;28;20057;-73
2022/06/09 07:10:36;;;;;;;9.10;2.38;;;;;;;;;;4970898;28;20081;-73
2022/06/09 07:13:05;;;;;;;11.45;2.47;;;;;;;;;;4971835;28;20051;-73
2022/06/09 07:15:32;;;;;;;16.70;2.45;;;;;;;;;;4970308;28;20501;-73
2022/06/09 07:17:59;;;;;;;14.57;2.25;;;;;;;;;;4968008;28;20065;-73
2022/06/09 07:20:27;;;;;;;8.15;2.40;;;;;;;;;;4963834;28;21444;-73
2022/06/09 07:22:55;;;;;;;12.20;2.00;;;;;;;;;;4968302;28;20055;-73
2022/06/09 07:25:23;;;;;;;25.67;2.75;;;;;;;;;;4975137;28;20066;-73
2022/06/09 07:27:52;;;;;;;15.82;2.17;;;;;;;;;;4968418;28;20363;-73
2022/06/09 07:30:21;;;;;;;16.02;2.30;;;;;;;;;;4969980;28;20481;-73
2022/06/09 07:32:49;;;;;;;10.05;1.95;;;;;;;;;;4964336;28;20051;-73
2022/06/09 07:35:17;;;;;;;13.20;2.50;;;;;;;;;;4966817;28;20461;-73
2022/06/09 07:37:44;;;;;;;11.50;2.47;;;;;;;;;;4979055;28;20123;-73
2022/06/09 07:40:12;;;;;;;9.73;2.00;;;;;;;;;;4969687;28;20065;-73
2022/06/09 07:42:40;;;;;;;14.07;2.28;;;;;;;;;;4968315;28;20050;-73
2022/06/09 07:45:08;;;;;;;13.95;2.53;;;;;;;;;;4968133;28;20050;-73
2022/06/09 07:47:37;;;;;;;11.98;2.10;;;;;;;;;;4967327;28;20050;-73
2022/06/09 07:50:05;;;;;;;8.70;2.08;;;;;;;;;;4970388;28;20137;-73
2022/06/09 07:52:32;;;;;;;11.18;2.00;;;;;;;;;;4966768;28;20065;-73
2022/06/09 07:55:00;;;;;;;10.38;1.83;;;;;;;;;;4970783;28;20050;-73
2022/06/09 07:57:27;;;;;;;17.63;2.95;;;;;;;;;;4969251;28;20050;-73
2022/06/09 07:59:54;;;;;;;12.10;2.83;;;;;;;;;;4969955;28;20062;-73
2022/06/09 08:02:22;;;;;;;14.10;2.47;;;;;;;;;;4963681;28;20454;-73
2022/06/09 08:04:50;;;;;;;13.30;2.63;;;;;;;;;;4972560;28;20050;-73
2022/06/09 08:07:18;;;;;;;10.77;2.20;;;;;;;;;;4968527;28;20058;-73
2022/06/09 08:09:45;;;;;;;10.10;1.85;;;;;;;;;;4972255;28;20057;-73
2022/06/09 08:12:12;;;;;;;12.10;2.15;;;;;;;;;;4966436;28;20065;-73
2022/06/09 08:14:39;;;;;;;14.93;2.78;;;;;;;;;;4969070;28;20062;-73
2022/06/09 08:17:09;;;;;;;15.75;2.30;;;;;;;;;;4969898;28;20045;-73
2022/06/09 08:19:36;;;;;;;14.65;2.45;;;;;;;;;;4973043;28;20053;-73
2022/06/09 08:22:05;;;;;;;17.60;2.97;;;;;;;;;;4968349;28;20062;-73
2022/06/09 08:24:33;;;;;;;14.63;2.20;;;;;;;;;;4967813;28;20505;-73
2022/06/09 08:27:00;;;;;;;17.10;3.30;;;;;;;;;;4970430;28;20051;-73
2022/06/09 08:29:29;;;;;;;19.38;2.92;;;;;;;;;;4962974;28;20145;-73
2022/06/09 08:31:56;;;;;;;16.17;2.55;;;;;;;;;;4973037;28;20054;-73
2022/06/09 08:34:24;;;;;;;13.93;2.45;;;;;;;;;;4971251;28;20055;-73
2022/06/09 08:36:51;;;;;;;13.68;2.15;;;;;;;;;;4969927;28;20053;-73
2022/06/09 08:39:20;;;;;;;12.23;2.58;;;;;;;;;;4970571;28;20565;-72
2022/06/09 08:41:53;;;;;;;26.38;2.72;;;;;;;;;;4965070;28;20061;-73
2022/06/09 08:44:20;;;;;;;;;;;;;;;;;;4966124;28;20142;-73
2022/06/09 08:46:51;;;;;;;17.92;2.42;;;;;;;;;;4968589;28;19976;-73
2022/06/09 08:49:42;;;;;;;16.30;2.72;;;;;;;;;;4968199;28;20065;-72
2022/06/09 08:52:17;;;;;;;15.85;2.70;;;;;;;;;;4954305;28;20406;-73
2022/06/09 08:54:46;;;;;;;13.63;2.30;;;;;;;;;;4968204;28;20066;-73
2022/06/09 08:57:17;;;;;;;12.38;2.60;;;;;;;;;;4969194;28;20056;-73
2022/06/09 08:59:45;;;;;;;17.38;2.40;;;;;;;;;;4971355;28;20985;-73
2022/06/09 09:02:30;;;;;;;12.15;1.92;;;;;;;;;;4968135;28;20054;-73
2022/06/09 09:05:02;;;;;;;16.25;2.75;;;;;;;;;;4970590;28;20748;-73
2022/06/09 09:07:31;;;;;;;16.80;3.25;;;;;;;;;;4969586;28;20445;-73
2022/06/09 09:10:02;;;;;;;11.18;2.22;;;;;;;;;;4969740;28;20400;-73
2022/06/09 09:12:34;;;;;;;12.40;2.58;;;;;;;;;;4966494;28;20053;-73
2022/06/09 09:15:13;;;;;;;18.55;2.58;;;;;;;;;;4969972;28;20474;-72
2022/06/09 09:17:45;;;;;;;13.73;2.90;;;;;;;;;;4969964;28;20057;-73
2022/06/09 09:20:16;;;;;;;16.63;2.47;;;;;;;;;;4964275;28;20073;-73
2022/06/09 09:22:47;;;;;;;12.50;2.47;;;;;;;;;;4967792;28;20054;-73
2022/06/09 09:25:23;;;;;;;16.20;2.67;;;;;;;;;;4968724;28;20046;-73
2022/06/09 09:27:54;;;;;;;15.55;2.10;;;;;;;;;;4966981;28;20502;-73
2022/06/09 09:30:23;;;;;;;15.82;2.95;;;;;;;;;;4970043;28;20505;-73
2022/06/09 09:32:51;;;;;;;16.98;2.50;;;;;;;;;;4966303;28;20055;-73
2022/06/09 09:35:19;;;;;;;13.93;2.22;;;;;;;;;;4969344;28;20464;-73
2022/06/09 09:37:48;;;;;;;14.48;2.38;;;;;;;;;;4967647;28;20104;-73
2022/06/09 09:40:17;;;;;;;16.65;2.70;;;;;;;;;;4967466;28;20409;-73
2022/06/09 09:42:47;;;;;;;10.32;2.30;;;;;;;;;;4968609;28;20057;-73
2022/06/09 09:45:16;;;;;;;14.75;2.47;;;;;;;;;;4967990;28;20618;-73
2022/06/09 09:47:46;;;;;;;17.13;3.03;;;;;;;;;;4970494;28;20073;-73
2022/06/09 09:50:20;;;;;;;10.05;2.10;;;;;;;;;;4965726;28;20056;-73
2022/06/09 09:52:48;;;;;;;15.73;2.65;;;;;;;;;;4974325;28;20117;-73
2022/06/09 09:55:26;;;;;;;12.15;2.20;;;;;;;;;;4967623;28;20763;-73
2022/06/09 09:58:08;;;;;;;12.65;2.30;;;;;;;;;;4970103;28;21536;-73
2022/06/09 10:00:36;;;;;;;10.80;2.08;;;;;;;;;;4968409;28;20145;-73
2022/06/09 10:08:43;;;;;;;11.88;2.40;;;;;;;;;;4965428;28;20133;-73
2022/06/09 10:13:59;;;;;;;9.80;1.80;;;;;;;;;;4953460;28;20046;-74
2022/06/09 10:16:28;;;;;;;11.30;2.10;;;;;;;;;;4968245;28;21153;-73
2022/06/09 10:18:56;;;;;;;8.38;1.98;;;;;;;;;;4972251;28;20058;-73
2022/06/09 10:21:24;;;;;;;13.95;2.08;;;;;;;;;;4966741;28;20053;-73
2022/06/09 10:23:54;;;;;;;9.90;1.98;;;;;;;;;;4964961;28;20133;-73
2022/06/09 10:26:23;;;;;;;12.95;1.73;;;;;;;;;;4965455;28;20042;-73
2022/06/09 10:28:55;;;;;;;13.10;2.20;;;;;;;;;;4969737;28;20058;-73
2022/06/09 10:31:41;;;;;;;9.80;2.13;;;;;;;;;;4968625;28;20137;-73
2022/06/09 10:34:15;;;;;;;14.07;1.88;;;;;;;;;;4965388;28;20061;-73
2022/06/09 10:36:45;;;;;;;13.75;2.55;;;;;;;;;;4966375;28;20053;-74
2022/06/09 10:39:15;;;;;;;11.88;1.98;;;;;;;;;;4968757;28;20116;-74
2022/06/09 10:41:47;;;;;;;9.52;1.80;;;;;;;;;;4970423;28;20097;-74
2022/06/09 10:44:17;;;;;;;11.15;2.10;;;;;;;;;;4962078;28;20046;-74
2022/06/09 10:55:14;;;;;;;14.55;2.10;;;;;;;;;;4966155;28;20133;-74
2022/06/09 10:55:24;;;;;;;10.52;1.77;;;;;;;;;;4965673;28;20166;-74
2022/06/09 10:57:56;;;;;;;9.95;1.98;;;;;;;;;;4968395;28;20047;-74
2022/06/09 11:00:25;;;;;;;8.32;1.75;;;;;;;;;;4966758;28;20054;-74
2022/06/09 11:02:55;;;;;;;11.48;2.40;;;;;;;;;;4968539;28;20054;-74
2022/06/09 11:05:25;;;;;;;10.25;2.42;;;;;;;;;;4964660;28;20164;-74
2022/06/09 11:07:58;;;;;;;10.05;2.08;;;;;;;;;;4969502;28;20507;-73
2022/06/09 11:10:28;;;;;;;8.18;1.67;;;;;;;;;;4967623;28;20053;-73
2022/06/09 11:13:01;;;;;;;12.48;2.20;;;;;;;;;;4966884;28;20058;-74
2022/06/09 11:15:33;;;;;;;10.35;2.50;;;;;;;;;;4962693;28;20107;-74
2022/06/09 11:18:07;;;;;;;9.35;1.95;;;;;;;;;;4961544;28;20038;-74
2022/06/09 11:20:42;;;;;;;10.18;2.45;;;;;;;;;;4967281;28;20054;-74
2022/06/09 11:23:13;;;;;;;14.68;2.58;;;;;;;;;;4969419;28;20054;-74
2022/06/09 11:25:46;;;;;;;7.55;2.05;;;;;;;;;;4966573;28;20054;-74
2022/06/09 11:28:24;;;;;;;12.07;2.35;;;;;;;;;;4970175;28;20054;-74
2022/06/09 11:31:09;;;;;;;12.70;2.33;;;;;;;;;;4969797;28;20074;-74
2022/06/09 11:33:49;;;;;;;8.75;2.22;;;;;;;;;;4968602;28;20047;-74
2022/06/09 11:36:20;;;;;;;10.70;1.90;;;;;;;;;;4968036;28;20054;-74
2022/06/09 11:38:52;;;;;;;12.30;2.38;;;;;;;;;;4971477;28;20050;-74
2022/06/09 11:41:25;;;;;;;16.65;2.90;;;;;;;;;;4970327;28;20050;-74
2022/06/09 11:43:58;;;;;;;14.98;2.75;;;;;;;;;;4970349;28;20046;-74
2022/06/09 11:46:27;;;;;;;12.13;2.30;;;;;;;;;;4969898;28;20109;-74
2022/06/09 11:48:59;;;;;;;11.48;2.53;;;;;;;;;;4971807;28;20129;-74
2022/06/09 11:51:27;;;;;;;8.20;2.00;;;;;;;;;;4975045;28;20050;-74
2022/06/09 11:53:56;;;;;;;7.45;1.88;;;;;;;;;;4971391;28;20448;-74
2022/06/09 11:56:36;;;;;;;7.70;1.65;;;;;;;;;;4972751;28;20516;-74
2022/06/09 11:59:06;;;;;;;8.90;2.00;;;;;;;;;;4967491;28;20057;-74
2022/06/09 12:01:43;;;;;;;8.05;1.85;;;;;;;;;;4971277;28;20077;-74
2022/06/09 12:04:17;;;;;;;9.10;1.95;;;;;;;;;;4971669;28;20050;-74
2022/06/09 12:06:58;;;;;;;8.25;1.83;;;;;;;;;;4970386;28;20057;-74
2022/06/09 12:09:30;;;;;;;9.68;1.92;;;;;;;;;;4966775;28;20524;-74
2022/06/09 12:11:59;;;;;;;9.60;2.22;;;;;;;;;;4966335;28;20104;-74
2022/06/09 12:14:28;;;;;;;6.35;1.73;;;;;;;;;;4974715;28;20104;-74
2022/06/09 12:16:58;;;;;;;7.57;2.00;;;;;;;;;;4970598;28;20057;-75
2022/06/09 12:19:28;;;;;;;8.07;2.13;;;;;;;;;;4970610;28;20058;-75
2022/06/09 12:21:58;;;;;;;7.93;1.70;;;;;;;;;;4970209;28;20126;-75
2022/06/09 12:24:35;;;;;;;9.10;2.38;;;;;;;;;;4969632;28;21019;-75
2022/06/09 12:27:19;;;;;;;7.45;2.00;;;;;;;;;;4971386;28;20069;-75
2022/06/09 12:29:47;;;;;;;7.78;1.80;;;;;;;;;;4970874;28;20054;-75
2022/06/09 12:32:30;;;;;;;6.55;2.05;;;;;;;;;;4975385;28;20497;-75
2022/06/09 12:34:59;;;;;;;8.75;1.67;;;;;;;;;;4971475;28;20497;-75
2022/06/09 12:37:28;;;;;;;5.53;1.60;;;;;;;;;;4971231;28;20066;-75
2022/06/09 12:39:58;;;;;;;9.38;2.40;;;;;;;;;;4975526;28;20409;-75
2022/06/09 12:42:27;;;;;;;8.70;2.15;;;;;;;;;;4972404;28;20445;-75
2022/06/09 12:45:02;;;;;;;7.93;2.30;;;;;;;;;;4972736;28;20050;-75
2022/06/09 12:47:30;;;;;;;7.97;1.70;;;;;;;;;;4971386;28;20050;-75
2022/06/09 12:50:00;;;;;;;7.15;2.50;;;;;;;;;;4971552;28;20057;-75
2022/06/09 12:52:28;;;;;;;9.55;2.00;;;;;;;;;;4965931;28;20054;-75
2022/06/09 12:54:57;;;;;;;9.50;2.30;;;;;;;;;;4969385;28;20062;-75
2022/06/09 12:57:27;;;;;;;11.55;2.40;;;;;;;;;;4968357;28;20047;-75
2022/06/09 13:00:03;;;;;;;8.43;2.22;;;;;;;;;;4968782;28;20184;-75
2022/06/09 13:02:32;;;;;;;9.93;2.40;;;;;;;;;;4963863;28;20086;-75
2022/06/09 13:05:02;;;;;;;9.25;2.35;;;;;;;;;;4969129;28;20050;-75
2022/06/09 13:07:31;;;;;;;6.20;1.60;;;;;;;;;;4968292;28;20073;-75
2022/06/09 13:10:04;;;;;;;10.52;2.28;;;;;;;;;;4968632;28;20396;-75
2022/06/09 13:15:20;;;;;;;11.63;2.90;;;;;;;;;;4983429;28;19929;-75
2022/06/09 13:17:49;;;;;;;;;;;;;;;;;;4969292;28;20058;-75
2022/06/09 13:20:21;;;;;;;10.98;2.53;;;;;;;;;;4973532;28;19936;-75
2022/06/09 13:22:49;;;;;;;11.88;2.30;;;;;;;;;;4970629;28;20057;-75
2022/06/09 13:25:18;;;;;;;7.53;2.00;;;;;;;;;;4966137;28;20058;-75
2022/06/09 13:27:48;;;;;;;11.35;2.60;;;;;;;;;;4973102;28;20540;-75
2022/06/09 13:30:33;;;;;;;8.20;1.90;;;;;;;;;;4964075;28;20050;-75
2022/06/09 13:33:00;;;;;;;9.07;2.60;;;;;;;;;;4969912;28;20101;-75
2022/06/09 13:35:37;;;;;;;12.65;2.78;;;;;;;;;;4970161;28;20551;-75
2022/06/09 13:38:05;;;;;;;9.75;2.90;;;;;;;;;;4966961;28;20105;-75
2022/06/09 13:40:43;;;;;;;7.65;2.45;;;;;;;;;;4970069;28;20416;-75
2022/06/09 13:43:16;;;;;;;12.80;3.42;;;;;;;;;;4969704;28;20113;-75
2022/06/09 13:45:50;;;;;;;14.00;3.05;;;;;;;;;;4968126;28;20050;-75
2022/06/09 13:48:18;;;;;;;11.40;3.35;;;;;;;;;;4968902;28;20053;-75
2022/06/09 13:50:49;;;;;;;12.30;2.75;;;;;;;;;;4971677;28;20058;-75
2022/06/09 13:53:31;;;;;;;9.77;3.00;;;;;;;;;;4968827;28;20058;-75
2022/06/09 13:55:59;;;;;;;13.18;4.00;;;;;;;;;;4971312;28;20061;-76
2022/06/09 13:58:26;;;;;;;10.02;2.72;;;;;;;;;;4968120;28;20192;-77
2022/06/09 14:00:55;;;;;;;9.75;3.10;;;;;;;;;;4975507;28;20046;-77
2022/06/09 14:03:25;;;;;;;8.88;2.45;;;;;;;;;;4968627;28;20046;-77
2022/06/09 14:05:55;;;;;;;11.35;2.88;;;;;;;;;;4972110;28;20055;-77
2022/06/09 14:08:23;;;;;;;10.10;2.28;;;;;;;;;;4973315;28;20042;-76
2022/06/09 14:10:50;;;;;;;9.80;2.60;;;;;;;;;;4972283;28;20394;-77
2022/06/09 14:13:17;;;;;;;9.80;2.72;;;;;;;;;;4970155;28;20046;-77
2022/06/09 14:15:46;;;;;;;12.55;3.03;;;;;;;;;;4970120;28;20054;-77
2022/06/09 14:18:15;;;;;;;10.90;2.90;;;;;;;;;;4970958;28;20050;-77
2022/06/09 14:20:42;;;;;;;13.68;3.08;;;;;;;;;;4970718;28;20049;-77
2022/06/09 14:23:17;;;;;;;12.43;3.00;;;;;;;;;;4966845;28;20101;-77
2022/06/09 14:25:44;;;;;;;10.88;3.00;;;;;;;;;;4970956;28;20497;-77
2022/06/09 14:28:12;;;;;;;12.38;3.13;;;;;;;;;;4971471;28;20045;-77
2022/06/09 14:30:39;;;;;;;9.55;2.53;;;;;;;;;;4969120;28;20058;-77
2022/06/09 14:33:10;;;;;;;11.18;2.75;;;;;;;;;;4971072;28;20062;-77
2022/06/09 14:35:37;;;;;;;9.73;2.55;;;;;;;;;;4973469;28;20061;-76
2022/06/09 14:38:04;;;;;;;13.02;2.80;;;;;;;;;;4969276;28;20053;-76
2022/06/09 14:40:34;;;;;;;12.88;2.70;;;;;;;;;;4980163;28;20053;-76
2022/06/09 14:43:04;;;;;;;9.52;2.72;;;;;;;;;;4969101;28;20050;-76
2022/06/09 14:45:31;;;;;;;14.43;2.90;;;;;;;;;;4970762;28;20062;-76
2022/06/09 14:47:58;;;;;;;12.18;3.10;;;;;;;;;;4974838;28;20128;-74
2022/06/09 14:50:27;;;;;;;11.88;2.80;;;;;;;;;;4969556;28;20109;-74
2022/06/09 14:52:54;;;;;;;8.90;2.70;;;;;;;;;;4970321;28;20050;-74
2022/06/09 14:55:21;;;;;;;8.70;2.40;;;;;;;;;;4968144;28;20054;-74
2022/06/09 14:57:50;;;;;;;11.45;2.80;;;;;;;;;;4973992;28;20046;-74
2022/06/09 15:00:19;;;;;;;14.82;3.55;;;;;;;;;;4975552;28;20120;-74
2022/06/09 15:02:46;;;;;;;10.90;2.75;;;;;;;;;;4974999;28;20065;-74
2022/06/09 15:05:16;;;;;;;8.90;2.90;;;;;;;;;;4969672;28;20061;-74